Time;durP1;ratioP1;P1;durP2;ratioP2;P2;SDS_P1;SDS_P2;PMS_P1;PMS_P2;Temp;Humidity;BMP_temperature;BMP_pressure;BME280_temperature;BME280_humidity;BME280_pressure;Samples;Min_cycle;Max_cycle;Signal;HPM_P1;HPM_P2
2023/08/08 00:02:21;;;;;;;5.47;3.08;;;13.90;99.90;;;;;;5055322;28;20056;-43
2023/08/08 00:04:48;;;;;;;9.52;2.90;;;13.90;99.90;;;;;;5055845;28;20044;-43
2023/08/08 00:07:14;;;;;;;8.25;2.92;;;13.90;99.90;;;;;;5053074;28;20415;-41
2023/08/08 00:09:40;;;;;;;7.40;3.30;;;13.90;99.90;;;;;;5042283;28;20055;-44
2023/08/08 00:12:06;;;;;;;7.55;2.88;;;13.90;99.90;;;;;;5055398;28;20102;-40
2023/08/08 00:14:31;;;;;;;4.40;3.22;;;13.80;99.90;;;;;;5048880;28;20132;-42
2023/08/08 00:16:57;;;;;;;5.35;3.22;;;13.80;99.90;;;;;;5048965;28;20048;-43
2023/08/08 00:19:23;;;;;;;7.28;3.40;;;13.80;99.90;;;;;;5047877;28;20485;-41
2023/08/08 00:21:48;;;;;;;6.88;3.38;;;13.80;99.90;;;;;;5048656;28;21088;-44
2023/08/08 00:24:14;;;;;;;5.65;3.03;;;13.70;99.90;;;;;;5054829;28;20051;-41
2023/08/08 00:26:40;;;;;;;5.75;3.15;;;13.70;99.90;;;;;;5054748;28;20518;-44
2023/08/08 00:29:06;;;;;;;7.32;2.95;;;13.70;99.90;;;;;;5054713;28;20407;-39
2023/08/08 00:31:31;;;;;;;6.75;3.17;;;13.70;99.90;;;;;;5054962;28;20106;-43
2023/08/08 00:33:57;;;;;;;6.43;3.10;;;13.70;99.90;;;;;;5055740;28;20052;-42
2023/08/08 00:36:23;;;;;;;4.88;3.28;;;13.70;99.90;;;;;;5040961;28;20439;-43
2023/08/08 00:38:49;;;;;;;8.88;3.28;;;13.70;99.90;;;;;;5055304;28;20059;-44
2023/08/08 00:41:15;;;;;;;4.82;3.20;;;13.60;99.90;;;;;;5041203;28;20059;-44
2023/08/08 00:43:40;;;;;;;12.35;3.17;;;13.70;99.90;;;;;;5021253;28;20513;-41
2023/08/08 00:46:06;;;;;;;5.38;2.90;;;13.70;99.90;;;;;;5055163;28;20098;-40
2023/08/08 00:48:32;;;;;;;8.93;3.88;;;13.70;99.90;;;;;;5054734;28;20292;-39
2023/08/08 00:50:59;;;;;;;9.90;3.97;;;13.70;99.90;;;;;;5036283;28;20055;-44
2023/08/08 00:53:27;;;;;;;6.32;3.65;;;13.70;99.90;;;;;;5032944;28;20099;-43
2023/08/08 00:55:54;;;;;;;6.05;3.45;;;13.70;99.90;;;;;;5033667;28;20061;-43
2023/08/08 00:58:20;;;;;;;4.80;3.08;;;13.70;99.90;;;;;;5043034;28;20097;-41
2023/08/08 01:00:45;;;;;;;5.65;2.95;;;13.70;99.90;;;;;;5050320;28;20048;-42
2023/08/08 01:03:11;;;;;;;9.02;3.25;;;13.70;99.90;;;;;;5034562;28;20056;-42
2023/08/08 01:05:44;;;;;;;6.15;3.97;;;13.70;99.90;;;;;;5031930;28;20052;-43
2023/08/08 01:08:14;;;;;;;5.97;3.28;;;13.70;99.90;;;;;;5024610;28;20092;-43
2023/08/08 01:10:41;;;;;;;8.88;3.17;;;13.70;99.90;;;;;;5038638;28;20051;-43
2023/08/08 01:13:10;;;;;;;11.40;3.83;;;13.80;99.90;;;;;;5054663;28;20049;-40
2023/08/08 01:15:37;;;;;;;7.30;3.50;;;13.70;99.90;;;;;;5041233;28;20416;-40
2023/08/08 01:18:08;;;;;;;6.60;3.33;;;13.80;99.90;;;;;;5044019;28;20144;-40
2023/08/08 01:20:35;;;;;;;11.95;4.45;;;13.70;99.90;;;;;;5050148;28;20044;-41
2023/08/08 01:23:18;;;;;;;6.75;3.30;;;13.70;99.90;;;;;;5054216;28;20507;-41
2023/08/08 01:25:45;;;;;;;;;;;13.70;99.90;;;;;;5055128;28;20082;-45
2023/08/08 01:28:11;;;;;;;5.82;3.70;;;13.70;99.90;;;;;;5035941;28;20019;-44
2023/08/08 01:30:37;;;;;;;9.70;3.72;;;13.70;99.90;;;;;;5053231;28;20471;-41
2023/08/08 01:33:04;;;;;;;8.27;3.45;;;13.70;99.90;;;;;;5035622;28;20592;-41
2023/08/08 01:35:32;;;;;;;6.65;3.65;;;13.70;99.90;;;;;;5054283;28;20060;-43
2023/08/08 01:38:08;;;;;;;7.10;3.75;;;13.70;99.90;;;;;;5039716;28;20094;-40
2023/08/08 01:40:35;;;;;;;6.50;3.40;;;13.60;99.90;;;;;;5024227;28;20056;-40
2023/08/08 01:43:01;;;;;;;7.95;3.88;;;13.60;99.90;;;;;;5040777;28;20676;-41
2023/08/08 01:45:27;;;;;;;9.57;3.53;;;13.60;99.90;;;;;;5054333;28;20125;-43
2023/08/08 01:47:53;;;;;;;7.40;3.53;;;13.60;99.90;;;;;;5053316;28;20080;-41
2023/08/08 01:50:21;;;;;;;8.15;3.50;;;13.50;99.90;;;;;;5044918;28;20314;-43
2023/08/08 01:52:46;;;;;;;10.30;3.05;;;13.50;99.90;;;;;;5048394;28;20681;-41
2023/08/08 01:55:12;;;;;;;10.90;3.70;;;13.40;99.90;;;;;;5043428;28;20044;-45
2023/08/08 01:57:38;;;;;;;9.48;3.20;;;13.50;99.90;;;;;;5037640;28;20048;-43
2023/08/08 02:00:05;;;;;;;6.50;3.60;;;13.40;99.90;;;;;;5043979;28;20109;-40
2023/08/08 02:02:31;;;;;;;5.32;3.58;;;13.40;99.90;;;;;;5050170;28;20052;-43
2023/08/08 02:04:57;;;;;;;7.15;2.78;;;13.40;99.90;;;;;;5037146;28;20829;-41
2023/08/08 02:07:22;;;;;;;5.97;3.17;;;13.40;99.90;;;;;;5049077;28;20474;-43
2023/08/08 02:09:50;;;;;;;6.65;3.38;;;13.40;99.90;;;;;;5047115;28;20049;-42
2023/08/08 02:12:16;;;;;;;6.38;3.22;;;13.40;99.90;;;;;;5057828;28;20550;-40
2023/08/08 02:14:42;;;;;;;11.52;3.47;;;13.40;99.90;;;;;;5048753;28;20144;-44
2023/08/08 02:17:08;;;;;;;6.85;3.67;;;13.40;99.90;;;;;;5050962;28;20059;-43
2023/08/08 02:19:33;;;;;;;11.10;3.15;;;13.40;99.90;;;;;;5045731;28;20076;-41
2023/08/08 02:21:59;;;;;;;5.63;2.85;;;13.40;99.90;;;;;;5057512;28;20501;-44
2023/08/08 02:24:24;;;;;;;10.10;3.60;;;13.40;99.90;;;;;;5039856;28;20114;-40
2023/08/08 02:26:50;;;;;;;8.75;3.20;;;13.40;99.90;;;;;;5056409;28;20057;-43
2023/08/08 02:29:16;;;;;;;11.68;3.28;;;13.40;99.90;;;;;;5056367;28;20535;-42
2023/08/08 02:31:41;;;;;;;7.35;2.90;;;13.40;99.90;;;;;;5056925;28;20082;-41
2023/08/08 02:34:07;;;;;;;10.75;3.13;;;13.40;99.90;;;;;;5048672;28;20044;-39
2023/08/08 02:36:33;;;;;;;14.27;3.53;;;13.40;99.90;;;;;;5038890;28;20044;-43
2023/08/08 02:38:59;;;;;;;10.82;2.80;;;13.30;99.90;;;;;;5056575;28;20060;-45
2023/08/08 02:41:24;;;;;;;12.75;3.40;;;13.30;99.90;;;;;;5041563;28;20041;-43
2023/08/08 02:43:50;;;;;;;8.43;2.97;;;13.30;99.90;;;;;;5036306;28;20155;-40
2023/08/08 02:46:16;;;;;;;7.43;3.33;;;13.30;99.90;;;;;;5031657;28;20155;-44
2023/08/08 02:48:42;;;;;;;9.45;2.92;;;13.30;99.90;;;;;;5046485;28;20055;-45
2023/08/08 02:51:07;;;;;;;12.82;2.80;;;13.30;99.90;;;;;;5055084;28;20075;-43
2023/08/08 02:53:33;;;;;;;11.35;2.60;;;13.20;99.90;;;;;;5028218;28;20048;-43
2023/08/08 02:55:58;;;;;;;6.40;2.80;;;13.20;99.90;;;;;;5056064;28;20099;-45
2023/08/08 02:58:24;;;;;;;5.93;2.42;;;13.20;99.90;;;;;;5047948;28;20049;-42
2023/08/08 03:00:50;;;;;;;10.70;3.13;;;13.20;99.90;;;;;;5038705;28;20052;-43
2023/08/08 03:03:15;;;;;;;9.43;3.25;;;13.20;99.90;;;;;;5047512;28;20052;-43
2023/08/08 03:05:41;;;;;;;9.07;2.83;;;13.20;99.90;;;;;;5053339;28;20647;-39
2023/08/08 03:08:07;;;;;;;8.13;2.55;;;13.20;99.90;;;;;;5056439;28;20612;-43
2023/08/08 03:10:32;;;;;;;6.70;2.13;;;13.20;99.90;;;;;;5055497;28;20056;-42
2023/08/08 03:12:58;;;;;;;12.68;2.63;;;13.20;99.90;;;;;;5037262;28;20056;-44
2023/08/08 03:15:24;;;;;;;7.10;2.03;;;13.20;99.90;;;;;;5055056;28;20048;-40
2023/08/08 03:17:49;;;;;;;9.70;2.47;;;13.20;99.90;;;;;;5025705;28;20045;-43
2023/08/08 03:20:15;;;;;;;11.55;3.22;;;13.20;99.90;;;;;;5034853;28;20053;-45
2023/08/08 03:22:41;;;;;;;9.20;2.22;;;13.20;99.90;;;;;;5042153;28;20170;-41
2023/08/08 03:25:07;;;;;;;7.03;2.75;;;13.20;99.90;;;;;;5050930;28;20173;-39
2023/08/08 03:27:33;;;;;;;5.65;2.03;;;13.20;99.90;;;;;;5048057;28;20541;-41
2023/08/08 03:29:58;;;;;;;8.63;2.33;;;13.20;99.90;;;;;;5037580;28;20044;-45
2023/08/08 03:32:24;;;;;;;8.38;2.42;;;13.20;99.90;;;;;;5038913;28;20052;-41
2023/08/08 03:34:50;;;;;;;10.98;2.13;;;13.20;99.90;;;;;;5056195;28;20040;-42
2023/08/08 03:37:15;;;;;;;10.52;2.33;;;13.20;99.90;;;;;;5056495;28;20119;-40
2023/08/08 03:39:41;;;;;;;9.77;2.10;;;13.20;99.90;;;;;;5055882;28;20067;-40
2023/08/08 03:42:07;;;;;;;6.65;2.60;;;13.20;99.90;;;;;;5037887;28;20078;-40
2023/08/08 03:44:33;;;;;;;12.38;2.63;;;13.10;99.90;;;;;;5055691;28;20044;-42
2023/08/08 03:46:58;;;;;;;7.25;2.17;;;13.20;99.90;;;;;;5047705;28;20773;-43
2023/08/08 03:49:24;;;;;;;11.73;2.45;;;13.10;99.90;;;;;;5030665;28;20710;-43
2023/08/08 03:51:50;;;;;;;10.68;2.60;;;13.10;99.90;;;;;;5035459;28;20136;-43
2023/08/08 03:54:18;;;;;;;9.30;2.67;;;13.10;99.90;;;;;;5050158;28;20046;-41
2023/08/08 03:56:43;;;;;;;8.90;2.10;;;13.10;99.90;;;;;;5055029;28;20502;-41
2023/08/08 03:59:09;;;;;;;12.18;3.17;;;13.20;99.90;;;;;;5055035;28;20048;-42
2023/08/08 04:01:37;;;;;;;9.55;2.80;;;13.20;99.90;;;;;;5051472;28;20044;-46
2023/08/08 04:04:04;;;;;;;8.40;2.25;;;13.30;99.90;;;;;;5040807;28;20201;-44
2023/08/08 04:06:29;;;;;;;9.07;2.70;;;13.40;99.90;;;;;;5053263;28;20052;-44
2023/08/08 04:08:55;;;;;;;8.20;2.42;;;13.50;99.90;;;;;;5054620;28;20430;-41
2023/08/08 04:11:21;;;;;;;10.02;2.55;;;13.50;99.90;;;;;;5055701;28;20442;-41
2023/08/08 04:13:46;;;;;;;9.80;2.97;;;13.50;99.90;;;;;;5055872;28;20495;-42
2023/08/08 04:16:12;;;;;;;12.55;2.88;;;13.50;99.90;;;;;;5047545;28;20111;-43
2023/08/08 04:18:38;;;;;;;10.73;2.70;;;13.60;99.90;;;;;;5034746;28;20522;-46
2023/08/08 04:21:03;;;;;;;11.57;2.50;;;13.60;99.90;;;;;;5041928;28;20045;-41
2023/08/08 04:23:29;;;;;;;10.60;2.65;;;13.60;99.90;;;;;;5054240;28;20043;-43
2023/08/08 04:25:55;;;;;;;6.85;1.83;;;13.60;99.90;;;;;;5050701;28;20106;-44
2023/08/08 04:28:20;;;;;;;6.97;2.33;;;13.70;99.90;;;;;;5054916;28;20048;-43
2023/08/08 04:30:46;;;;;;;12.15;2.65;;;13.70;99.90;;;;;;5029627;28;20048;-41
2023/08/08 04:33:12;;;;;;;6.95;2.38;;;13.80;99.90;;;;;;5048017;28;20056;-43
2023/08/08 04:35:37;;;;;;;11.23;3.13;;;13.80;99.90;;;;;;5042587;28;20415;-41
2023/08/08 04:38:03;;;;;;;9.05;2.58;;;13.80;99.90;;;;;;5053709;28;20393;-43
2023/08/08 04:40:29;;;;;;;7.30;2.28;;;13.90;99.90;;;;;;5023730;28;20045;-45
2023/08/08 04:42:55;;;;;;;9.57;2.42;;;14.00;99.90;;;;;;5054125;28;20389;-41
2023/08/08 04:45:21;;;;;;;10.60;2.35;;;14.10;99.90;;;;;;5055668;28;20521;-42
2023/08/08 04:47:47;;;;;;;4.03;1.92;;;14.20;99.90;;;;;;5054599;28;20044;-41
2023/08/08 04:50:12;;;;;;;7.45;2.55;;;14.30;99.90;;;;;;5046761;28;20057;-42
2023/08/08 04:52:38;;;;;;;6.93;2.72;;;14.40;99.90;;;;;;5048206;28;20880;-43
2023/08/08 04:55:05;;;;;;;7.00;2.90;;;14.40;99.90;;;;;;5042535;28;20174;-46
2023/08/08 04:57:31;;;;;;;6.85;2.88;;;14.40;99.90;;;;;;5054638;28;20453;-44
2023/08/08 04:59:57;;;;;;;7.55;2.97;;;14.40;99.90;;;;;;5054853;28;20119;-40
2023/08/08 05:02:22;;;;;;;9.95;2.97;;;14.40;99.90;;;;;;5044816;28;20057;-41
2023/08/08 05:04:49;;;;;;;6.25;2.67;;;14.30;99.90;;;;;;5042878;28;20048;-41
2023/08/08 05:07:15;;;;;;;6.90;2.58;;;14.30;99.90;;;;;;5040456;28;20049;-44
2023/08/08 05:09:41;;;;;;;9.65;3.63;;;14.20;99.90;;;;;;5046018;28;20363;-45
2023/08/08 05:12:07;;;;;;;8.57;3.03;;;14.10;99.90;;;;;;5029911;28;20056;-41
2023/08/08 05:14:32;;;;;;;9.15;3.08;;;14.00;99.90;;;;;;5043498;28;20044;-41
2023/08/08 05:16:58;;;;;;;7.45;2.72;;;13.90;99.90;;;;;;5040558;28;20479;-40
2023/08/08 05:19:25;;;;;;;6.80;3.33;;;13.90;99.90;;;;;;5054460;28;20072;-44
2023/08/08 05:21:50;;;;;;;9.60;3.22;;;14.60;99.90;;;;;;5054493;28;20084;-44
2023/08/08 05:24:16;;;;;;;9.45;3.30;;;16.10;99.90;;;;;;5033194;28;20694;-43
2023/08/08 05:26:42;;;;;;;8.60;3.03;;;17.70;99.90;;;;;;5046720;28;20054;-45
2023/08/08 05:29:07;;;;;;;8.10;2.85;;;19.20;99.90;;;;;;5023047;28;20053;-44
2023/08/08 05:31:33;;;;;;;8.85;3.28;;;19.70;99.90;;;;;;5034442;28;20056;-41
2023/08/08 05:33:58;;;;;;;7.38;3.38;;;20.90;99.90;;;;;;5047548;28;20049;-46
2023/08/08 05:36:24;;;;;;;9.35;3.88;;;21.60;99.90;;;;;;5050133;28;20041;-47
2023/08/08 05:38:50;;;;;;;6.95;3.08;;;22.30;99.90;;;;;;5057220;28;20114;-43
2023/08/08 05:41:15;;;;;;;5.93;2.90;;;22.60;99.90;;;;;;5057249;28;20064;-43
2023/08/08 05:43:42;;;;;;;7.03;3.00;;;23.20;99.90;;;;;;5036430;28;20099;-44
2023/08/08 05:46:08;;;;;;;8.55;2.85;;;24.00;99.90;;;;;;5038142;28;20053;-41
2023/08/08 05:48:33;;;;;;;7.70;2.47;;;24.10;99.90;;;;;;5057457;28;20055;-44
2023/08/08 05:50:59;;;;;;;6.22;2.28;;;24.50;98.80;;;;;;5039509;28;20125;-46
2023/08/08 05:53:25;;;;;;;7.35;2.20;;;24.70;98.50;;;;;;5058359;28;20048;-42
2023/08/08 05:55:51;;;;;;;5.32;1.88;;;24.80;98.60;;;;;;5038287;28;20570;-44
2023/08/08 05:58:16;;;;;;;5.47;2.40;;;25.50;99.00;;;;;;5051335;28;20122;-46
2023/08/08 06:00:42;;;;;;;4.50;1.55;;;25.70;96.30;;;;;;5037854;28;20144;-47
2023/08/08 06:03:08;;;;;;;4.72;1.75;;;25.80;97.10;;;;;;5058052;28;20796;-42
2023/08/08 06:05:34;;;;;;;3.53;1.70;;;26.20;96.30;;;;;;5044191;28;20049;-44
2023/08/08 06:07:59;;;;;;;5.63;1.50;;;26.10;94.80;;;;;;5050539;28;20053;-44
2023/08/08 06:10:25;;;;;;;8.85;2.00;;;26.60;94.60;;;;;;5038359;28;20052;-46
2023/08/08 06:12:51;;;;;;;7.93;2.30;;;26.70;95.40;;;;;;5046569;28;20549;-48
2023/08/08 06:15:17;;;;;;;5.78;1.77;;;26.40;93.80;;;;;;5030055;28;20053;-47
2023/08/08 06:17:43;;;;;;;8.05;2.05;;;26.70;93.70;;;;;;5040671;28;20051;-48
2023/08/08 06:20:09;;;;;;;4.53;1.65;;;26.90;94.70;;;;;;5039404;28;20036;-46
2023/08/08 06:22:35;;;;;;;5.85;1.88;;;27.20;94.00;;;;;;5048938;28;20516;-43
2023/08/08 06:25:00;;;;;;;6.88;2.50;;;27.40;93.70;;;;;;5022081;28;20053;-43
2023/08/08 06:27:26;;;;;;;7.40;1.88;;;27.90;92.50;;;;;;5032759;28;20143;-45
2023/08/08 06:29:52;;;;;;;5.05;1.67;;;27.90;92.20;;;;;;5038077;28;20887;-44
2023/08/08 06:32:17;;;;;;;5.63;2.03;;;28.20;91.10;;;;;;5028885;28;20460;-45
2023/08/08 06:34:43;;;;;;;9.25;1.92;;;28.20;90.80;;;;;;5050766;28;20399;-42
2023/08/08 06:37:08;;;;;;;5.03;1.65;;;28.30;89.80;;;;;;5041467;28;20498;-44
2023/08/08 06:39:34;;;;;;;6.68;2.17;;;28.90;89.80;;;;;;5041331;28;20047;-47
2023/08/08 06:42:00;;;;;;;6.85;2.10;;;29.00;90.20;;;;;;5030373;28;20092;-46
2023/08/08 06:44:26;;;;;;;3.45;1.33;;;29.20;90.40;;;;;;5046157;28;20132;-40
2023/08/08 06:46:51;;;;;;;4.40;1.60;;;28.90;88.20;;;;;;5043130;28;20056;-45
2023/08/08 06:49:17;;;;;;;7.03;2.38;;;28.40;88.60;;;;;;5022745;28;20052;-43
2023/08/08 06:51:42;;;;;;;6.70;1.55;;;28.50;90.20;;;;;;5041297;28;20205;-46
2023/08/08 06:54:08;;;;;;;5.68;1.98;;;28.50;87.50;;;;;;5049244;28;20044;-41
2023/08/08 06:56:34;;;;;;;6.50;2.10;;;28.00;89.30;;;;;;5036121;28;20053;-41
2023/08/08 06:58:59;;;;;;;7.03;1.80;;;27.90;88.60;;;;;;5050252;28;20228;-43
2023/08/08 07:01:25;;;;;;;5.85;1.88;;;28.00;89.00;;;;;;5057040;28;20615;-46
2023/08/08 07:03:51;;;;;;;5.80;2.03;;;28.30;90.50;;;;;;5056442;28;20139;-41
2023/08/08 07:06:18;;;;;;;4.72;1.85;;;28.60;87.70;;;;;;5056605;28;20052;-43
2023/08/08 07:08:44;;;;;;;8.10;2.13;;;28.50;90.10;;;;;;5056053;28;20037;-44
2023/08/08 07:11:10;;;;;;;8.15;2.00;;;27.10;89.80;;;;;;5056390;28;20536;-45
2023/08/08 07:13:36;;;;;;;7.38;2.00;;;26.20;91.10;;;;;;5055870;28;20048;-46
2023/08/08 07:16:02;;;;;;;6.90;1.92;;;24.70;92.50;;;;;;5031336;28;20459;-44
2023/08/08 07:18:27;;;;;;;6.00;1.83;;;23.40;93.40;;;;;;5025692;28;20063;-47
2023/08/08 07:20:53;;;;;;;4.43;1.70;;;22.40;95.20;;;;;;5039779;28;20486;-42
2023/08/08 07:23:19;;;;;;;7.30;1.70;;;21.70;95.90;;;;;;5049020;28;20048;-41
2023/08/08 07:25:48;;;;;;;4.38;1.80;;;20.90;96.60;;;;;;5053435;28;20510;-39
2023/08/08 07:28:16;;;;;;;5.20;1.55;;;20.30;97.70;;;;;;5035133;28;20139;-41
2023/08/08 07:30:42;;;;;;;5.72;1.60;;;20.00;98.90;;;;;;5045003;28;20052;-45
2023/08/08 07:33:10;;;;;;;5.10;1.30;;;19.80;99.50;;;;;;5054577;28;20053;-41
2023/08/08 07:35:36;;;;;;;7.68;1.77;;;19.40;99.90;;;;;;5054354;28;20478;-46
2023/08/08 07:38:02;;;;;;;7.85;1.77;;;19.20;99.90;;;;;;5037706;28;20362;-45
2023/08/08 07:40:27;;;;;;;6.43;1.63;;;19.00;99.90;;;;;;5048062;28;20518;-45
2023/08/08 07:42:53;;;;;;;8.32;2.20;;;18.90;99.90;;;;;;5039103;28;20103;-43
2023/08/08 07:45:19;;;;;;;7.95;2.20;;;19.00;99.90;;;;;;5047878;28;20139;-43
2023/08/08 07:47:45;;;;;;;6.65;1.67;;;19.00;99.90;;;;;;5048703;28;20478;-45
2023/08/08 07:50:11;;;;;;;4.80;1.70;;;19.10;99.90;;;;;;5055389;28;20574;-43
2023/08/08 07:52:38;;;;;;;10.30;2.28;;;19.10;99.90;;;;;;5044515;28;20048;-43
2023/08/08 07:55:04;;;;;;;7.75;1.90;;;19.20;99.90;;;;;;5055532;28;20094;-45
2023/08/08 07:57:33;;;;;;;7.65;2.20;;;19.30;99.90;;;;;;5054313;28;20090;-47
2023/08/08 07:59:59;;;;;;;5.85;2.22;;;19.30;99.90;;;;;;5046220;28;20041;-46
2023/08/08 08:02:24;;;;;;;8.70;1.92;;;19.10;99.90;;;;;;5048503;28;20388;-45
2023/08/08 08:04:50;;;;;;;6.45;1.70;;;19.10;99.90;;;;;;5044747;28;20060;-46
2023/08/08 08:07:16;;;;;;;10.35;2.22;;;19.10;99.90;;;;;;5055376;28;20048;-47
2023/08/08 08:09:42;;;;;;;6.93;2.13;;;19.10;99.90;;;;;;5045704;28;20053;-43
2023/08/08 08:12:08;;;;;;;5.70;1.83;;;19.00;99.90;;;;;;5051985;28;20052;-43
2023/08/08 08:14:34;;;;;;;4.18;2.17;;;18.80;99.90;;;;;;5054717;28;20548;-45
2023/08/08 08:16:59;;;;;;;6.85;2.03;;;18.60;99.90;;;;;;5040455;28;20823;-44
2023/08/08 08:19:25;;;;;;;5.90;1.92;;;18.30;99.90;;;;;;5035001;28;20140;-48
2023/08/08 08:21:51;;;;;;;7.97;2.10;;;18.10;99.90;;;;;;5049350;28;20052;-42
2023/08/08 08:24:16;;;;;;;9.43;2.22;;;17.80;99.90;;;;;;5048374;28;20457;-41
2023/08/08 08:26:42;;;;;;;12.63;2.53;;;17.80;99.90;;;;;;5048564;28;20059;-43
2023/08/08 08:29:08;;;;;;;10.00;2.38;;;17.70;99.90;;;;;;5042689;28;20390;-41
2023/08/08 08:31:33;;;;;;;6.03;2.10;;;17.70;99.90;;;;;;5055498;28;20048;-44
2023/08/08 08:33:59;;;;;;;6.63;1.88;;;17.70;99.90;;;;;;5048185;28;20044;-44
2023/08/08 08:36:26;;;;;;;4.97;2.10;;;17.80;99.90;;;;;;5048625;28;20051;-41
2023/08/08 08:38:52;;;;;;;6.45;2.45;;;17.90;99.90;;;;;;5054552;28;20113;-44
2023/08/08 08:41:19;;;;;;;9.77;2.00;;;17.80;99.90;;;;;;5054635;28;20151;-42
2023/08/08 08:43:46;;;;;;;7.93;1.80;;;17.50;99.90;;;;;;5042985;28;20052;-41
2023/08/08 08:46:14;;;;;;;9.23;2.33;;;17.20;99.90;;;;;;5041065;28;20052;-47
2023/08/08 08:48:41;;;;;;;7.55;2.30;;;17.00;99.90;;;;;;5053775;28;20063;-43
2023/08/08 08:51:07;;;;;;;8.90;2.38;;;16.70;99.90;;;;;;5054797;28;20044;-39
2023/08/08 08:53:34;;;;;;;5.43;1.83;;;16.60;99.90;;;;;;5054538;28;20067;-42
2023/08/08 08:56:01;;;;;;;8.13;2.20;;;16.50;99.90;;;;;;5053893;28;20049;-46
2023/08/08 08:58:28;;;;;;;6.97;1.67;;;16.40;99.90;;;;;;5054874;28;20177;-41
2023/08/08 09:00:55;;;;;;;8.13;2.38;;;16.60;99.90;;;;;;5042649;28;20044;-41
2023/08/08 09:03:21;;;;;;;9.32;1.98;;;16.90;99.90;;;;;;5053742;28;20552;-42
2023/08/08 09:05:48;;;;;;;7.68;1.85;;;17.40;99.90;;;;;;5032168;28;20157;-44
2023/08/08 09:08:15;;;;;;;6.20;1.90;;;17.80;99.90;;;;;;5043529;28;20044;-40
2023/08/08 09:10:40;;;;;;;7.53;1.95;;;17.80;99.90;;;;;;5035891;28;20048;-44
2023/08/08 09:13:06;;;;;;;5.45;2.08;;;17.80;99.90;;;;;;5055116;28;20037;-39
2023/08/08 09:15:33;;;;;;;5.40;1.55;;;17.70;99.90;;;;;;5041089;28;20376;-45
2023/08/08 09:18:00;;;;;;;4.30;1.83;;;17.70;99.90;;;;;;5054321;28;20048;-43
2023/08/08 09:20:30;;;;;;;4.72;1.50;;;17.80;99.90;;;;;;5053858;28;20600;-43
2023/08/08 09:22:56;;;;;;;7.47;1.73;;;18.20;99.90;;;;;;5036494;28;20588;-40
2023/08/08 09:25:23;;;;;;;4.38;1.80;;;18.40;99.90;;;;;;5039820;28;20092;-44
2023/08/08 09:27:51;;;;;;;7.93;1.95;;;18.50;99.90;;;;;;5044817;28;20469;-46
2023/08/08 09:30:17;;;;;;;7.40;1.75;;;18.50;99.90;;;;;;5032161;28;20495;-45
2023/08/08 09:32:44;;;;;;;9.75;2.40;;;18.60;99.90;;;;;;5026184;28;20062;-42
2023/08/08 09:35:10;;;;;;;5.85;1.85;;;18.80;99.90;;;;;;5054290;28;20106;-44
2023/08/08 09:37:37;;;;;;;8.48;1.98;;;19.20;99.90;;;;;;5054147;28;20608;-41
2023/08/08 09:40:05;;;;;;;6.97;2.20;;;19.30;99.90;;;;;;5053754;28;20045;-43
2023/08/08 09:42:31;;;;;;;5.28;2.28;;;19.30;99.90;;;;;;5054745;28;20048;-41
2023/08/08 09:44:57;;;;;;;7.10;1.60;;;19.10;99.90;;;;;;5040517;28;20048;-40
2023/08/08 09:47:24;;;;;;;6.57;2.00;;;19.20;99.90;;;;;;5036353;28;20079;-44
2023/08/08 09:49:51;;;;;;;6.63;2.10;;;19.50;99.90;;;;;;5049874;28;20587;-43
2023/08/08 09:52:17;;;;;;;7.45;2.35;;;19.70;99.90;;;;;;5034764;28;20122;-41
2023/08/08 09:54:42;;;;;;;7.00;1.77;;;19.90;99.90;;;;;;5048456;28;20052;-47
2023/08/08 09:57:09;;;;;;;5.70;2.15;;;20.10;99.90;;;;;;5034197;28;20940;-41
2023/08/08 09:59:35;;;;;;;4.25;1.85;;;20.10;99.90;;;;;;5047677;28;20452;-43
2023/08/08 10:02:01;;;;;;;6.20;2.20;;;20.10;99.90;;;;;;5046271;28;20044;-41
2023/08/08 10:04:27;;;;;;;8.27;1.73;;;19.90;99.90;;;;;;5054511;28;20040;-42
2023/08/08 10:06:53;;;;;;;4.78;2.10;;;20.20;99.90;;;;;;5051462;28;20067;-44
2023/08/08 10:09:19;;;;;;;4.70;1.63;;;20.50;99.90;;;;;;5047796;28;20045;-43
2023/08/08 10:11:46;;;;;;;5.93;2.05;;;20.30;99.90;;;;;;5045324;28;20079;-43
2023/08/08 10:14:14;;;;;;;7.82;2.10;;;20.30;99.90;;;;;;5050235;28;20495;-46
2023/08/08 10:16:41;;;;;;;6.35;2.13;;;20.20;99.90;;;;;;5044733;28;20048;-43
2023/08/08 10:19:07;;;;;;;6.18;1.75;;;20.20;99.90;;;;;;5039650;28;20044;-41
2023/08/08 10:21:43;;;;;;;4.35;1.80;;;20.30;99.90;;;;;;5036914;28;20056;-44
2023/08/08 10:24:10;;;;;;;4.03;1.63;;;20.50;99.90;;;;;;5003039;28;20045;-43
2023/08/08 10:27:00;;;;;;;6.88;2.25;;;20.50;99.90;;;;;;5049750;28;20091;-42
2023/08/08 10:29:27;;;;;;;5.35;1.70;;;20.20;99.90;;;;;;5057137;28;20059;-43
2023/08/08 10:32:21;;;;;;;6.28;1.95;;;19.90;99.90;;;;;;5044070;28;20082;-44
2023/08/08 10:34:47;;;;;;;10.05;2.33;;;20.00;99.90;;;;;;5057347;28;20052;-42
2023/08/08 10:37:20;;;;;;;7.45;1.80;;;19.90;99.90;;;;;;5057632;28;20118;-43
2023/08/08 10:39:58;;;;;;;6.18;1.80;;;19.80;99.90;;;;;;5043701;28;20107;-44
2023/08/08 10:42:28;;;;;;;6.85;1.50;;;19.60;99.90;;;;;;5036358;28;20049;-42
2023/08/08 10:44:59;;;;;;;3.95;1.67;;;19.70;99.90;;;;;;5040825;28;20072;-47
2023/08/08 10:47:29;;;;;;;5.90;1.55;;;19.80;99.90;;;;;;5056582;28;20412;-40
2023/08/08 10:50:06;;;;;;;5.00;1.67;;;19.80;99.90;;;;;;5038423;28;20129;-45
2023/08/08 10:52:35;;;;;;;5.93;1.70;;;19.60;99.90;;;;;;5039121;28;20059;-44
2023/08/08 10:55:03;;;;;;;4.10;1.70;;;19.70;99.90;;;;;;5038243;28;20048;-44
2023/08/08 10:57:30;;;;;;;8.88;1.88;;;19.90;99.90;;;;;;5056017;28;20048;-44
2023/08/08 11:00:15;;;;;;;7.82;2.05;;;20.20;99.90;;;;;;5040626;28;20052;-44
2023/08/08 11:02:41;;;;;;;6.07;2.10;;;20.20;99.90;;;;;;5056717;28;20059;-41
2023/08/08 11:05:09;;;;;;;2.95;1.38;;;19.90;99.90;;;;;;5056264;28;20479;-46
2023/08/08 11:07:37;;;;;;;4.60;1.60;;;19.90;99.90;;;;;;5038512;28;20482;-44
2023/08/08 11:10:03;;;;;;;4.97;1.88;;;20.10;99.90;;;;;;5038471;28;20067;-43
2023/08/08 11:12:29;;;;;;;7.25;1.70;;;20.30;99.90;;;;;;5038998;28;20044;-45
2023/08/08 11:14:55;;;;;;;7.05;1.60;;;20.40;99.90;;;;;;5047560;28;20045;-42
2023/08/08 11:17:20;;;;;;;6.72;1.60;;;20.40;99.90;;;;;;5053295;28;20715;-42
2023/08/08 11:19:46;;;;;;;5.03;1.73;;;20.20;99.90;;;;;;5055926;28;20135;-41
2023/08/08 11:22:12;;;;;;;7.20;1.98;;;19.90;99.90;;;;;;5056321;28;20702;-44
2023/08/08 11:24:37;;;;;;;7.32;1.73;;;19.40;99.90;;;;;;5056161;28;20131;-43
2023/08/08 11:27:04;;;;;;;5.82;1.90;;;19.20;99.90;;;;;;5038065;28;20052;-40
2023/08/08 11:29:30;;;;;;;7.82;1.98;;;18.90;99.90;;;;;;5046660;28;20052;-44
2023/08/08 11:32:02;;;;;;;6.05;1.98;;;19.00;99.90;;;;;;5055968;28;20048;-40
2023/08/08 11:34:33;;;;;;;6.32;2.08;;;19.30;99.90;;;;;;5038968;28;20052;-40
2023/08/08 11:37:00;;;;;;;5.50;2.42;;;19.40;99.90;;;;;;5055419;28;20126;-43
2023/08/08 11:39:26;;;;;;;6.60;2.65;;;19.60;99.90;;;;;;5056120;28;20056;-43
2023/08/08 11:41:52;;;;;;;10.15;2.13;;;19.70;99.90;;;;;;5056193;28;20045;-41
2023/08/08 11:44:19;;;;;;;7.03;1.80;;;19.50;99.90;;;;;;5056584;28;20372;-40
2023/08/08 11:46:48;;;;;;;7.35;1.70;;;19.80;99.90;;;;;;5037307;28;20582;-44
2023/08/08 11:49:15;;;;;;;5.90;1.40;;;20.00;99.90;;;;;;5055869;28;20510;-40
2023/08/08 11:51:43;;;;;;;8.60;1.80;;;20.00;99.90;;;;;;5036629;28;20045;-42
2023/08/08 11:54:09;;;;;;;5.13;1.60;;;20.10;99.90;;;;;;5049891;28;20053;-44
2023/08/08 11:56:36;;;;;;;4.10;1.45;;;20.20;99.90;;;;;;5048322;28;20048;-45
2023/08/08 11:59:02;;;;;;;7.07;1.88;;;20.20;99.90;;;;;;5049881;28;20298;-42
2023/08/08 12:01:30;;;;;;;5.38;1.45;;;20.20;99.90;;;;;;5057083;28;20053;-42
2023/08/08 12:03:56;;;;;;;11.00;2.47;;;20.20;99.90;;;;;;5056225;28;20036;-41
2023/08/08 12:06:22;;;;;;;10.85;2.22;;;19.90;99.90;;;;;;5036620;28;20053;-43
2023/08/08 12:08:48;;;;;;;6.28;1.63;;;19.80;99.90;;;;;;5053846;28;20063;-43
2023/08/08 12:11:15;;;;;;;6.55;1.67;;;19.90;99.90;;;;;;5043580;28;20059;-41
2023/08/08 12:13:42;;;;;;;6.80;2.20;;;20.10;99.90;;;;;;5037231;28;20048;-43
2023/08/08 12:16:10;;;;;;;6.25;2.00;;;20.30;99.90;;;;;;5036677;28;20571;-44
2023/08/08 12:18:40;;;;;;;5.60;2.10;;;20.40;99.90;;;;;;5054402;28;20113;-43
2023/08/08 12:21:06;;;;;;;6.85;2.00;;;20.40;99.90;;;;;;5036953;28;20052;-45
2023/08/08 12:23:33;;;;;;;5.60;1.85;;;20.30;99.90;;;;;;5058951;28;20116;-45
2023/08/08 12:25:59;;;;;;;8.75;2.15;;;19.90;99.90;;;;;;5020638;28;20052;-43
2023/08/08 12:28:25;;;;;;;7.55;2.75;;;19.70;99.90;;;;;;5053315;28;20556;-44
2023/08/08 12:30:51;;;;;;;5.53;2.03;;;19.40;99.90;;;;;;5037650;28;20052;-43
2023/08/08 12:33:16;;;;;;;8.32;2.25;;;19.30;99.90;;;;;;5053252;28;20045;-40
2023/08/08 12:35:42;;;;;;;7.15;2.42;;;19.30;99.90;;;;;;5042717;28;20052;-46
2023/08/08 12:38:08;;;;;;;7.82;2.15;;;19.30;99.90;;;;;;5054146;28;20659;-43
2023/08/08 12:40:33;;;;;;;5.78;1.80;;;19.50;99.90;;;;;;5055065;28;20139;-41
2023/08/08 12:42:59;;;;;;;5.53;1.80;;;19.80;99.90;;;;;;5036972;28;20097;-44